sensor_id;sensor_type;location;lat;lon;timestamp;P1;durP1;ratioP1;P2;durP2;ratioP2
49828;SDS011;35723;51.194;5.112;2022-09-21T00:00:35;7.28;;;3.80;;
49828;SDS011;35723;51.194;5.112;2022-09-21T00:03:02;6.88;;;3.83;;
49828;SDS011;35723;51.194;5.112;2022-09-21T00:05:28;7.18;;;3.80;;
49828;SDS011;35723;51.194;5.112;2022-09-21T00:07:54;7.30;;;3.80;;
49828;SDS011;35723;51.194;5.112;2022-09-21T00:10:20;8.20;;;3.97;;
49828;SDS011;35723;51.194;5.112;2022-09-21T00:12:46;7.65;;;3.70;;
49828;SDS011;35723;51.194;5.112;2022-09-21T00:15:13;6.18;;;3.60;;
49828;SDS011;35723;51.194;5.112;2022-09-21T00:17:44;6.65;;;3.67;;
49828;SDS011;35723;51.194;5.112;2022-09-21T00:20:11;6.10;;;3.53;;
49828;SDS011;35723;51.194;5.112;2022-09-21T00:22:38;6.38;;;3.78;;
49828;SDS011;35723;51.194;5.112;2022-09-21T00:25:06;6.35;;;3.65;;
49828;SDS011;35723;51.194;5.112;2022-09-21T00:27:32;7.78;;;3.75;;
49828;SDS011;35723;51.194;5.112;2022-09-21T00:29:59;7.97;;;3.83;;
49828;SDS011;35723;51.194;5.112;2022-09-21T00:32:27;7.00;;;3.72;;
49828;SDS011;35723;51.194;5.112;2022-09-21T00:34:55;6.60;;;3.60;;
49828;SDS011;35723;51.194;5.112;2022-09-21T00:37:22;6.95;;;3.85;;
49828;SDS011;35723;51.194;5.112;2022-09-21T00:39:48;6.30;;;3.60;;
49828;SDS011;35723;51.194;5.112;2022-09-21T00:42:35;7.38;;;3.70;;
49828;SDS011;35723;51.194;5.112;2022-09-21T00:45:01;7.10;;;3.80;;
49828;SDS011;35723;51.194;5.112;2022-09-21T00:47:35;9.02;;;3.78;;
49828;SDS011;35723;51.194;5.112;2022-09-21T00:50:22;7.60;;;3.45;;
49828;SDS011;35723;51.194;5.112;2022-09-21T00:52:49;7.85;;;3.85;;
49828;SDS011;35723;51.194;5.112;2022-09-21T00:55:20;6.38;;;3.75;;
49828;SDS011;35723;51.194;5.112;2022-09-21T00:57:53;7.65;;;3.65;;
49828;SDS011;35723;51.194;5.112;2022-09-21T01:00:24;6.20;;;3.30;;
49828;SDS011;35723;51.194;5.112;2022-09-21T01:02:50;7.80;;;3.58;;
49828;SDS011;35723;51.194;5.112;2022-09-21T01:05:16;6.55;;;3.50;;
49828;SDS011;35723;51.194;5.112;2022-09-21T01:07:43;6.85;;;3.53;;
49828;SDS011;35723;51.194;5.112;2022-09-21T01:10:11;6.50;;;3.45;;
49828;SDS011;35723;51.194;5.112;2022-09-21T01:35:05;6.32;;;3.50;;
49828;SDS011;35723;51.194;5.112;2022-09-21T01:40:09;6.57;;;3.40;;
49828;SDS011;35723;51.194;5.112;2022-09-21T01:42:39;6.13;;;3.40;;
49828;SDS011;35723;51.194;5.112;2022-09-21T01:45:07;6.32;;;3.42;;
49828;SDS011;35723;51.194;5.112;2022-09-21T01:47:36;6.45;;;3.60;;
49828;SDS011;35723;51.194;5.112;2022-09-21T01:50:06;6.68;;;3.42;;
49828;SDS011;35723;51.194;5.112;2022-09-21T01:52:55;6.68;;;3.08;;
49828;SDS011;35723;51.194;5.112;2022-09-21T01:55:47;6.05;;;3.20;;
49828;SDS011;35723;51.194;5.112;2022-09-21T01:58:23;5.75;;;3.30;;
49828;SDS011;35723;51.194;5.112;2022-09-21T02:00:57;7.80;;;3.58;;
49828;SDS011;35723;51.194;5.112;2022-09-21T02:05:57;6.22;;;3.38;;
49828;SDS011;35723;51.194;5.112;2022-09-21T02:08:25;6.93;;;3.38;;
49828;SDS011;35723;51.194;5.112;2022-09-21T02:10:52;6.90;;;3.20;;
49828;SDS011;35723;51.194;5.112;2022-09-21T02:13:19;6.80;;;3.35;;
49828;SDS011;35723;51.194;5.112;2022-09-21T02:26:28;5.55;;;3.35;;
49828;SDS011;35723;51.194;5.112;2022-09-21T02:29:11;6.50;;;3.25;;
49828;SDS011;35723;51.194;5.112;2022-09-21T02:31:52;7.47;;;3.30;;
49828;SDS011;35723;51.194;5.112;2022-09-21T02:34:31;5.05;;;3.03;;
49828;SDS011;35723;51.194;5.112;2022-09-21T02:42:33;6.28;;;3.33;;
49828;SDS011;35723;51.194;5.112;2022-09-21T02:45:24;5.78;;;3.53;;
49828;SDS011;35723;51.194;5.112;2022-09-21T02:47:56;6.25;;;3.30;;
49828;SDS011;35723;51.194;5.112;2022-09-21T02:50:24;6.90;;;3.30;;
49828;SDS011;35723;51.194;5.112;2022-09-21T02:52:57;7.13;;;3.20;;
49828;SDS011;35723;51.194;5.112;2022-09-21T02:55:24;6.20;;;3.25;;
49828;SDS011;35723;51.194;5.112;2022-09-21T02:57:51;7.40;;;3.40;;
49828;SDS011;35723;51.194;5.112;2022-09-21T03:00:18;5.55;;;3.20;;
49828;SDS011;35723;51.194;5.112;2022-09-21T03:02:44;7.53;;;3.50;;
49828;SDS011;35723;51.194;5.112;2022-09-21T03:05:10;7.03;;;3.38;;
49828;SDS011;35723;51.194;5.112;2022-09-21T03:07:37;5.45;;;3.30;;
49828;SDS011;35723;51.194;5.112;2022-09-21T03:10:03;6.07;;;3.25;;
49828;SDS011;35723;51.194;5.112;2022-09-21T03:12:30;6.85;;;3.33;;
49828;SDS011;35723;51.194;5.112;2022-09-21T03:14:56;6.78;;;3.35;;
49828;SDS011;35723;51.194;5.112;2022-09-21T03:17:22;6.45;;;3.25;;
49828;SDS011;35723;51.194;5.112;2022-09-21T03:19:48;6.32;;;3.55;;
49828;SDS011;35723;51.194;5.112;2022-09-21T03:22:14;6.45;;;3.22;;
49828;SDS011;35723;51.194;5.112;2022-09-21T03:24:41;7.50;;;3.50;;
49828;SDS011;35723;51.194;5.112;2022-09-21T03:27:10;6.15;;;3.55;;
49828;SDS011;35723;51.194;5.112;2022-09-21T03:29:37;6.93;;;3.40;;
49828;SDS011;35723;51.194;5.112;2022-09-21T03:32:02;5.97;;;3.15;;
49828;SDS011;35723;51.194;5.112;2022-09-21T03:34:28;7.00;;;3.28;;
49828;SDS011;35723;51.194;5.112;2022-09-21T03:36:56;6.65;;;3.40;;
49828;SDS011;35723;51.194;5.112;2022-09-21T03:39:22;6.53;;;3.10;;
49828;SDS011;35723;51.194;5.112;2022-09-21T03:41:47;6.90;;;3.47;;
49828;SDS011;35723;51.194;5.112;2022-09-21T03:44:14;6.38;;;3.22;;
49828;SDS011;35723;51.194;5.112;2022-09-21T03:46:41;6.72;;;3.17;;
49828;SDS011;35723;51.194;5.112;2022-09-21T03:49:07;6.97;;;3.60;;
49828;SDS011;35723;51.194;5.112;2022-09-21T03:51:33;6.20;;;3.40;;
49828;SDS011;35723;51.194;5.112;2022-09-21T03:53:59;5.50;;;3.20;;
49828;SDS011;35723;51.194;5.112;2022-09-21T03:56:24;8.75;;;3.50;;
49828;SDS011;35723;51.194;5.112;2022-09-21T03:58:50;5.57;;;3.33;;
49828;SDS011;35723;51.194;5.112;2022-09-21T04:01:16;6.05;;;3.45;;
49828;SDS011;35723;51.194;5.112;2022-09-21T04:03:41;6.88;;;3.50;;
49828;SDS011;35723;51.194;5.112;2022-09-21T04:06:07;6.97;;;3.35;;
49828;SDS011;35723;51.194;5.112;2022-09-21T04:08:34;5.40;;;3.22;;
49828;SDS011;35723;51.194;5.112;2022-09-21T04:10:59;5.50;;;3.30;;
49828;SDS011;35723;51.194;5.112;2022-09-21T04:13:26;5.95;;;3.40;;
49828;SDS011;35723;51.194;5.112;2022-09-21T04:15:51;5.88;;;3.30;;
49828;SDS011;35723;51.194;5.112;2022-09-21T04:18:17;6.25;;;3.28;;
49828;SDS011;35723;51.194;5.112;2022-09-21T04:20:44;7.55;;;3.50;;
49828;SDS011;35723;51.194;5.112;2022-09-21T04:23:09;7.18;;;3.45;;
49828;SDS011;35723;51.194;5.112;2022-09-21T04:25:35;6.50;;;3.50;;
49828;SDS011;35723;51.194;5.112;2022-09-21T04:28:01;5.85;;;3.38;;
49828;SDS011;35723;51.194;5.112;2022-09-21T04:30:26;6.78;;;3.38;;
49828;SDS011;35723;51.194;5.112;2022-09-21T04:32:53;6.07;;;3.47;;
49828;SDS011;35723;51.194;5.112;2022-09-21T04:35:18;7.35;;;3.67;;
49828;SDS011;35723;51.194;5.112;2022-09-21T04:37:44;7.60;;;3.78;;
49828;SDS011;35723;51.194;5.112;2022-09-21T04:40:10;7.63;;;3.60;;
49828;SDS011;35723;51.194;5.112;2022-09-21T04:42:36;7.72;;;3.42;;
49828;SDS011;35723;51.194;5.112;2022-09-21T04:45:02;6.80;;;3.53;;
49828;SDS011;35723;51.194;5.112;2022-09-21T04:47:28;6.72;;;3.60;;
49828;SDS011;35723;51.194;5.112;2022-09-21T04:49:55;6.18;;;3.67;;
49828;SDS011;35723;51.194;5.112;2022-09-21T04:52:20;6.65;;;3.63;;
49828;SDS011;35723;51.194;5.112;2022-09-21T04:54:46;9.15;;;3.70;;
49828;SDS011;35723;51.194;5.112;2022-09-21T04:57:12;6.55;;;3.60;;
49828;SDS011;35723;51.194;5.112;2022-09-21T04:59:38;6.20;;;3.63;;
49828;SDS011;35723;51.194;5.112;2022-09-21T05:02:09;6.05;;;3.55;;
49828;SDS011;35723;51.194;5.112;2022-09-21T05:04:35;5.55;;;3.45;;
49828;SDS011;35723;51.194;5.112;2022-09-21T05:07:01;6.57;;;3.95;;
49828;SDS011;35723;51.194;5.112;2022-09-21T05:09:27;9.02;;;4.03;;
49828;SDS011;35723;51.194;5.112;2022-09-21T05:12:11;5.97;;;3.50;;
49828;SDS011;35723;51.194;5.112;2022-09-21T05:14:36;7.40;;;3.47;;
49828;SDS011;35723;51.194;5.112;2022-09-21T05:17:02;6.20;;;3.28;;
49828;SDS011;35723;51.194;5.112;2022-09-21T05:19:28;7.45;;;3.60;;
49828;SDS011;35723;51.194;5.112;2022-09-21T05:21:53;7.45;;;3.55;;
49828;SDS011;35723;51.194;5.112;2022-09-21T05:24:19;9.30;;;3.40;;
49828;SDS011;35723;51.194;5.112;2022-09-21T05:26:45;7.63;;;3.75;;
49828;SDS011;35723;51.194;5.112;2022-09-21T05:29:10;6.68;;;3.60;;
49828;SDS011;35723;51.194;5.112;2022-09-21T05:34:49;6.38;;;3.60;;
49828;SDS011;35723;51.194;5.112;2022-09-21T05:39:56;8.10;;;3.58;;
49828;SDS011;35723;51.194;5.112;2022-09-21T05:42:22;7.35;;;3.55;;
49828;SDS011;35723;51.194;5.112;2022-09-21T05:44:47;7.97;;;3.55;;
49828;SDS011;35723;51.194;5.112;2022-09-21T05:52:53;7.28;;;3.75;;
49828;SDS011;35723;51.194;5.112;2022-09-21T06:01:01;5.82;;;3.50;;
49828;SDS011;35723;51.194;5.112;2022-09-21T06:03:49;6.07;;;3.45;;
49828;SDS011;35723;51.194;5.112;2022-09-21T06:06:17;7.57;;;3.53;;
49828;SDS011;35723;51.194;5.112;2022-09-21T06:08:44;8.43;;;3.40;;
49828;SDS011;35723;51.194;5.112;2022-09-21T06:11:10;8.30;;;3.45;;
49828;SDS011;35723;51.194;5.112;2022-09-21T06:13:36;7.32;;;3.70;;
49828;SDS011;35723;51.194;5.112;2022-09-21T06:16:02;6.50;;;3.40;;
49828;SDS011;35723;51.194;5.112;2022-09-21T06:18:28;7.88;;;3.50;;
49828;SDS011;35723;51.194;5.112;2022-09-21T06:20:54;7.13;;;3.60;;
49828;SDS011;35723;51.194;5.112;2022-09-21T06:23:20;7.35;;;3.22;;
49828;SDS011;35723;51.194;5.112;2022-09-21T06:25:52;7.20;;;3.60;;
49828;SDS011;35723;51.194;5.112;2022-09-21T06:28:18;12.13;;;3.70;;
49828;SDS011;35723;51.194;5.112;2022-09-21T06:30:48;7.97;;;3.30;;
49828;SDS011;35723;51.194;5.112;2022-09-21T06:33:15;6.90;;;3.30;;
49828;SDS011;35723;51.194;5.112;2022-09-21T06:35:50;8.18;;;3.17;;
49828;SDS011;35723;51.194;5.112;2022-09-21T06:38:16;11.10;;;3.38;;
49828;SDS011;35723;51.194;5.112;2022-09-21T06:40:42;7.78;;;3.40;;
49828;SDS011;35723;51.194;5.112;2022-09-21T06:43:07;8.77;;;3.65;;
49828;SDS011;35723;51.194;5.112;2022-09-21T06:45:33;6.07;;;3.40;;
49828;SDS011;35723;51.194;5.112;2022-09-21T06:47:58;5.68;;;3.35;;
49828;SDS011;35723;51.194;5.112;2022-09-21T06:50:24;8.57;;;3.38;;
49828;SDS011;35723;51.194;5.112;2022-09-21T06:52:50;6.85;;;3.30;;
49828;SDS011;35723;51.194;5.112;2022-09-21T06:55:16;6.85;;;3.42;;
49828;SDS011;35723;51.194;5.112;2022-09-21T06:57:41;6.75;;;3.55;;
49828;SDS011;35723;51.194;5.112;2022-09-21T07:00:08;11.77;;;3.80;;
49828;SDS011;35723;51.194;5.112;2022-09-21T07:02:35;7.00;;;3.40;;
49828;SDS011;35723;51.194;5.112;2022-09-21T07:05:01;8.77;;;3.70;;
49828;SDS011;35723;51.194;5.112;2022-09-21T07:07:28;8.60;;;3.50;;
49828;SDS011;35723;51.194;5.112;2022-09-21T07:09:55;7.25;;;3.55;;
49828;SDS011;35723;51.194;5.112;2022-09-21T07:12:22;9.32;;;3.78;;
49828;SDS011;35723;51.194;5.112;2022-09-21T07:14:49;6.13;;;3.38;;
49828;SDS011;35723;51.194;5.112;2022-09-21T07:17:15;7.03;;;3.45;;
49828;SDS011;35723;51.194;5.112;2022-09-21T07:19:40;7.50;;;3.40;;
49828;SDS011;35723;51.194;5.112;2022-09-21T07:22:06;7.03;;;3.25;;
49828;SDS011;35723;51.194;5.112;2022-09-21T07:24:31;6.38;;;3.17;;
49828;SDS011;35723;51.194;5.112;2022-09-21T07:26:57;13.00;;;3.70;;
49828;SDS011;35723;51.194;5.112;2022-09-21T07:29:23;9.80;;;3.65;;
49828;SDS011;35723;51.194;5.112;2022-09-21T07:31:50;9.05;;;3.55;;
49828;SDS011;35723;51.194;5.112;2022-09-21T07:34:15;8.55;;;3.25;;
49828;SDS011;35723;51.194;5.112;2022-09-21T07:36:41;8.82;;;3.53;;
49828;SDS011;35723;51.194;5.112;2022-09-21T07:39:10;7.70;;;3.30;;
49828;SDS011;35723;51.194;5.112;2022-09-21T07:41:36;9.93;;;3.58;;
49828;SDS011;35723;51.194;5.112;2022-09-21T07:44:02;7.10;;;3.30;;
49828;SDS011;35723;51.194;5.112;2022-09-21T07:46:28;11.38;;;3.78;;
49828;SDS011;35723;51.194;5.112;2022-09-21T07:48:54;7.55;;;3.30;;
49828;SDS011;35723;51.194;5.112;2022-09-21T07:51:20;7.10;;;3.00;;
49828;SDS011;35723;51.194;5.112;2022-09-21T07:53:46;7.50;;;3.13;;
49828;SDS011;35723;51.194;5.112;2022-09-21T07:56:13;10.07;;;3.30;;
49828;SDS011;35723;51.194;5.112;2022-09-21T07:58:41;6.35;;;3.30;;
49828;SDS011;35723;51.194;5.112;2022-09-21T08:01:26;10.73;;;3.50;;
49828;SDS011;35723;51.194;5.112;2022-09-21T08:03:54;9.18;;;3.50;;
49828;SDS011;35723;51.194;5.112;2022-09-21T08:06:21;8.73;;;3.50;;
49828;SDS011;35723;51.194;5.112;2022-09-21T08:08:48;5.40;;;2.95;;
49828;SDS011;35723;51.194;5.112;2022-09-21T08:11:15;8.85;;;3.08;;
49828;SDS011;35723;51.194;5.112;2022-09-21T08:13:43;7.72;;;3.15;;
49828;SDS011;35723;51.194;5.112;2022-09-21T08:16:09;11.30;;;3.78;;
49828;SDS011;35723;51.194;5.112;2022-09-21T08:18:36;9.77;;;3.35;;
49828;SDS011;35723;51.194;5.112;2022-09-21T08:21:03;7.50;;;3.15;;
49828;SDS011;35723;51.194;5.112;2022-09-21T08:23:28;8.20;;;3.20;;
49828;SDS011;35723;51.194;5.112;2022-09-21T08:26:01;6.18;;;2.95;;
49828;SDS011;35723;51.194;5.112;2022-09-21T08:28:30;7.22;;;3.13;;
49828;SDS011;35723;51.194;5.112;2022-09-21T08:30:59;6.45;;;2.92;;
49828;SDS011;35723;51.194;5.112;2022-09-21T08:33:25;6.20;;;2.85;;
49828;SDS011;35723;51.194;5.112;2022-09-21T08:35:55;6.30;;;3.00;;
49828;SDS011;35723;51.194;5.112;2022-09-21T08:38:22;7.30;;;3.17;;
49828;SDS011;35723;51.194;5.112;2022-09-21T08:40:48;6.57;;;2.70;;
49828;SDS011;35723;51.194;5.112;2022-09-21T08:43:17;4.78;;;2.83;;
49828;SDS011;35723;51.194;5.112;2022-09-21T08:45:49;6.97;;;2.90;;
49828;SDS011;35723;51.194;5.112;2022-09-21T08:48:19;7.05;;;2.72;;
49828;SDS011;35723;51.194;5.112;2022-09-21T08:50:53;6.53;;;2.63;;
49828;SDS011;35723;51.194;5.112;2022-09-21T08:55:57;4.72;;;2.58;;
49828;SDS011;35723;51.194;5.112;2022-09-21T08:58:24;5.68;;;2.80;;
49828;SDS011;35723;51.194;5.112;2022-09-21T09:23:08;5.07;;;2.45;;
49828;SDS011;35723;51.194;5.112;2022-09-21T09:25:41;6.38;;;2.60;;
49828;SDS011;35723;51.194;5.112;2022-09-21T09:30:41;4.60;;;2.22;;
49828;SDS011;35723;51.194;5.112;2022-09-21T09:33:21;5.80;;;2.30;;
49828;SDS011;35723;51.194;5.112;2022-09-21T09:35:56;6.53;;;2.38;;
49828;SDS011;35723;51.194;5.112;2022-09-21T09:38:27;4.38;;;2.35;;
49828;SDS011;35723;51.194;5.112;2022-09-21T09:41:49;5.55;;;2.50;;
49828;SDS011;35723;51.194;5.112;2022-09-21T09:52:21;7.55;;;2.10;;
49828;SDS011;35723;51.194;5.112;2022-09-21T09:54:47;6.35;;;2.10;;
49828;SDS011;35723;51.194;5.112;2022-09-21T09:57:13;6.35;;;2.33;;
49828;SDS011;35723;51.194;5.112;2022-09-21T09:59:51;8.93;;;2.17;;
49828;SDS011;35723;51.194;5.112;2022-09-21T10:02:23;6.30;;;2.22;;
49828;SDS011;35723;51.194;5.112;2022-09-21T10:10:01;8.80;;;2.30;;
49828;SDS011;35723;51.194;5.112;2022-09-21T10:12:27;7.32;;;1.98;;
49828;SDS011;35723;51.194;5.112;2022-09-21T10:14:55;5.35;;;1.90;;
49828;SDS011;35723;51.194;5.112;2022-09-21T10:17:24;5.40;;;1.83;;
49828;SDS011;35723;51.194;5.112;2022-09-21T10:20:00;5.70;;;2.08;;
49828;SDS011;35723;51.194;5.112;2022-09-21T10:22:28;11.85;;;2.10;;
49828;SDS011;35723;51.194;5.112;2022-09-21T10:24:56;3.90;;;1.88;;
49828;SDS011;35723;51.194;5.112;2022-09-21T10:27:29;6.95;;;1.88;;
49828;SDS011;35723;51.194;5.112;2022-09-21T10:29:59;6.45;;;1.90;;
49828;SDS011;35723;51.194;5.112;2022-09-21T10:32:28;5.53;;;1.90;;
49828;SDS011;35723;51.194;5.112;2022-09-21T10:37:31;4.13;;;1.85;;
49828;SDS011;35723;51.194;5.112;2022-09-21T10:42:44;4.65;;;1.77;;
49828;SDS011;35723;51.194;5.112;2022-09-21T10:45:25;3.38;;;1.90;;
49828;SDS011;35723;51.194;5.112;2022-09-21T10:47:54;4.38;;;2.00;;
49828;SDS011;35723;51.194;5.112;2022-09-21T10:52:59;4.40;;;1.75;;
49828;SDS011;35723;51.194;5.112;2022-09-21T10:55:36;3.83;;;1.52;;
49828;SDS011;35723;51.194;5.112;2022-09-21T10:58:08;2.33;;;1.40;;
49828;SDS011;35723;51.194;5.112;2022-09-21T11:00:47;6.53;;;1.80;;
49828;SDS011;35723;51.194;5.112;2022-09-21T11:06:15;4.70;;;1.60;;
49828;SDS011;35723;51.194;5.112;2022-09-21T11:09:08;9.27;;;1.80;;
49828;SDS011;35723;51.194;5.112;2022-09-21T11:20:22;6.13;;;1.75;;
49828;SDS011;35723;51.194;5.112;2022-09-21T11:22:58;4.78;;;1.60;;
49828;SDS011;35723;51.194;5.112;2022-09-21T11:28:39;3.92;;;1.60;;
49828;SDS011;35723;51.194;5.112;2022-09-21T11:34:10;2.90;;;1.30;;
49828;SDS011;35723;51.194;5.112;2022-09-21T11:44:52;2.75;;;1.60;;
49828;SDS011;35723;51.194;5.112;2022-09-21T11:52:58;3.47;;;1.30;;
49828;SDS011;35723;51.194;5.112;2022-09-21T11:58:09;5.22;;;1.70;;
49828;SDS011;35723;51.194;5.112;2022-09-21T12:00:46;3.58;;;1.50;;
49828;SDS011;35723;51.194;5.112;2022-09-21T12:20:04;2.70;;;1.40;;
49828;SDS011;35723;51.194;5.112;2022-09-21T12:22:39;6.60;;;1.63;;
49828;SDS011;35723;51.194;5.112;2022-09-21T12:30:31;2.88;;;0.98;;
49828;SDS011;35723;51.194;5.112;2022-09-21T12:33:00;3.28;;;1.30;;
49828;SDS011;35723;51.194;5.112;2022-09-21T12:38:19;3.72;;;1.30;;
49828;SDS011;35723;51.194;5.112;2022-09-21T12:40:55;5.40;;;1.30;;
49828;SDS011;35723;51.194;5.112;2022-09-21T12:43:34;2.17;;;1.40;;
49828;SDS011;35723;51.194;5.112;2022-09-21T12:48:34;11.35;;;2.00;;
49828;SDS011;35723;51.194;5.112;2022-09-21T12:53:49;4.13;;;1.60;;
49828;SDS011;35723;51.194;5.112;2022-09-21T12:56:29;3.67;;;1.40;;
49828;SDS011;35723;51.194;5.112;2022-09-21T12:59:17;3.30;;;1.50;;
49828;SDS011;35723;51.194;5.112;2022-09-21T13:04:48;3.22;;;1.55;;
49828;SDS011;35723;51.194;5.112;2022-09-21T13:09:45;5.30;;;1.40;;
49828;SDS011;35723;51.194;5.112;2022-09-21T13:14:40;3.90;;;1.40;;
49828;SDS011;35723;51.194;5.112;2022-09-21T13:17:14;3.92;;;1.42;;
49828;SDS011;35723;51.194;5.112;2022-09-21T13:19:57;2.85;;;1.30;;
49828;SDS011;35723;51.194;5.112;2022-09-21T13:22:39;4.22;;;1.50;;
49828;SDS011;35723;51.194;5.112;2022-09-21T13:41:19;2.42;;;1.20;;
49828;SDS011;35723;51.194;5.112;2022-09-21T13:49:22;8.02;;;1.35;;
49828;SDS011;35723;51.194;5.112;2022-09-21T13:52:04;4.05;;;1.10;;
49828;SDS011;35723;51.194;5.112;2022-09-21T14:02:37;2.53;;;1.20;;
49828;SDS011;35723;51.194;5.112;2022-09-21T14:05:06;3.30;;;1.10;;
49828;SDS011;35723;51.194;5.112;2022-09-21T14:07:38;2.95;;;1.35;;
49828;SDS011;35723;51.194;5.112;2022-09-21T14:10:05;3.90;;;0.98;;
49828;SDS011;35723;51.194;5.112;2022-09-21T14:12:33;2.85;;;1.10;;
49828;SDS011;35723;51.194;5.112;2022-09-21T14:15:29;3.20;;;0.98;;
49828;SDS011;35723;51.194;5.112;2022-09-21T14:18:15;3.05;;;1.08;;
49828;SDS011;35723;51.194;5.112;2022-09-21T14:23:36;3.38;;;1.02;;
49828;SDS011;35723;51.194;5.112;2022-09-21T14:26:19;2.83;;;0.88;;
49828;SDS011;35723;51.194;5.112;2022-09-21T14:28:57;1.58;;;1.00;;
49828;SDS011;35723;51.194;5.112;2022-09-21T14:31:30;1.90;;;1.05;;
49828;SDS011;35723;51.194;5.112;2022-09-21T14:34:01;6.43;;;1.23;;
49828;SDS011;35723;51.194;5.112;2022-09-21T14:36:32;2.50;;;1.15;;
49828;SDS011;35723;51.194;5.112;2022-09-21T14:39:18;1.65;;;0.90;;
49828;SDS011;35723;51.194;5.112;2022-09-21T14:41:48;1.70;;;1.10;;
49828;SDS011;35723;51.194;5.112;2022-09-21T14:44:21;7.40;;;1.38;;
49828;SDS011;35723;51.194;5.112;2022-09-21T14:55:15;5.25;;;1.42;;
49828;SDS011;35723;51.194;5.112;2022-09-21T15:00:41;2.38;;;1.30;;
49828;SDS011;35723;51.194;5.112;2022-09-21T15:08:53;3.50;;;1.40;;
49828;SDS011;35723;51.194;5.112;2022-09-21T15:12:00;4.07;;;1.45;;
49828;SDS011;35723;51.194;5.112;2022-09-21T15:17:53;3.40;;;1.30;;
49828;SDS011;35723;51.194;5.112;2022-09-21T15:20:23;4.32;;;1.17;;
49828;SDS011;35723;51.194;5.112;2022-09-21T15:22:59;2.28;;;1.02;;
49828;SDS011;35723;51.194;5.112;2022-09-21T15:25:25;2.63;;;1.10;;
49828;SDS011;35723;51.194;5.112;2022-09-21T15:27:57;7.80;;;1.40;;
49828;SDS011;35723;51.194;5.112;2022-09-21T15:30:24;4.40;;;1.38;;
49828;SDS011;35723;51.194;5.112;2022-09-21T15:32:53;5.07;;;1.20;;
49828;SDS011;35723;51.194;5.112;2022-09-21T15:35:23;2.95;;;0.93;;
49828;SDS011;35723;51.194;5.112;2022-09-21T15:37:53;1.83;;;0.90;;
49828;SDS011;35723;51.194;5.112;2022-09-21T15:43:03;4.78;;;1.33;;
49828;SDS011;35723;51.194;5.112;2022-09-21T15:48:26;3.30;;;1.02;;
49828;SDS011;35723;51.194;5.112;2022-09-21T15:50:58;3.03;;;1.10;;
49828;SDS011;35723;51.194;5.112;2022-09-21T15:53:48;3.72;;;1.10;;
49828;SDS011;35723;51.194;5.112;2022-09-21T15:56:21;4.25;;;0.88;;
49828;SDS011;35723;51.194;5.112;2022-09-21T15:58:50;3.08;;;1.10;;
49828;SDS011;35723;51.194;5.112;2022-09-21T16:01:22;4.18;;;1.20;;
49828;SDS011;35723;51.194;5.112;2022-09-21T16:03:48;3.00;;;1.10;;
49828;SDS011;35723;51.194;5.112;2022-09-21T16:06:28;2.33;;;1.05;;
49828;SDS011;35723;51.194;5.112;2022-09-21T16:09:35;3.03;;;1.10;;
49828;SDS011;35723;51.194;5.112;2022-09-21T16:12:01;2.92;;;1.40;;
49828;SDS011;35723;51.194;5.112;2022-09-21T16:14:50;3.65;;;1.10;;
49828;SDS011;35723;51.194;5.112;2022-09-21T16:17:22;1.98;;;1.13;;
49828;SDS011;35723;51.194;5.112;2022-09-21T16:22:22;2.25;;;1.13;;
49828;SDS011;35723;51.194;5.112;2022-09-21T16:24:50;3.25;;;1.13;;
49828;SDS011;35723;51.194;5.112;2022-09-21T16:27:20;2.63;;;1.13;;
49828;SDS011;35723;51.194;5.112;2022-09-21T16:29:49;3.05;;;1.10;;
49828;SDS011;35723;51.194;5.112;2022-09-21T16:34:42;3.00;;;1.20;;
49828;SDS011;35723;51.194;5.112;2022-09-21T16:39:53;1.80;;;1.15;;
49828;SDS011;35723;51.194;5.112;2022-09-21T16:42:21;3.83;;;1.13;;
49828;SDS011;35723;51.194;5.112;2022-09-21T16:44:48;1.90;;;0.93;;
49828;SDS011;35723;51.194;5.112;2022-09-21T16:47:15;5.18;;;1.15;;
49828;SDS011;35723;51.194;5.112;2022-09-21T16:49:49;1.60;;;0.90;;
49828;SDS011;35723;51.194;5.112;2022-09-21T16:52:19;4.97;;;1.17;;
49828;SDS011;35723;51.194;5.112;2022-09-21T16:54:45;3.45;;;1.13;;
49828;SDS011;35723;51.194;5.112;2022-09-21T16:57:13;3.55;;;1.30;;
49828;SDS011;35723;51.194;5.112;2022-09-21T16:59:38;2.65;;;1.30;;
49828;SDS011;35723;51.194;5.112;2022-09-21T17:02:04;3.13;;;1.05;;
49828;SDS011;35723;51.194;5.112;2022-09-21T17:04:31;2.83;;;1.10;;
49828;SDS011;35723;51.194;5.112;2022-09-21T17:06:58;3.03;;;1.20;;
49828;SDS011;35723;51.194;5.112;2022-09-21T17:11:55;1.98;;;1.10;;
49828;SDS011;35723;51.194;5.112;2022-09-21T17:14:25;3.17;;;1.35;;
49828;SDS011;35723;51.194;5.112;2022-09-21T17:16:59;3.85;;;1.10;;
49828;SDS011;35723;51.194;5.112;2022-09-21T17:19:28;3.30;;;1.23;;
49828;SDS011;35723;51.194;5.112;2022-09-21T17:21:55;4.57;;;1.40;;
49828;SDS011;35723;51.194;5.112;2022-09-21T17:24:21;2.53;;;1.15;;
49828;SDS011;35723;51.194;5.112;2022-09-21T17:26:46;2.30;;;1.25;;
49828;SDS011;35723;51.194;5.112;2022-09-21T17:29:22;2.83;;;1.30;;
49828;SDS011;35723;51.194;5.112;2022-09-21T17:31:54;4.78;;;1.77;;
49828;SDS011;35723;51.194;5.112;2022-09-21T17:34:23;2.70;;;1.25;;
49828;SDS011;35723;51.194;5.112;2022-09-21T17:36:50;3.95;;;1.50;;
49828;SDS011;35723;51.194;5.112;2022-09-21T17:39:18;4.43;;;1.50;;
49828;SDS011;35723;51.194;5.112;2022-09-21T17:41:58;2.55;;;1.58;;
49828;SDS011;35723;51.194;5.112;2022-09-21T17:45:16;3.10;;;1.70;;
49828;SDS011;35723;51.194;5.112;2022-09-21T17:47:26;5.07;;;1.88;;
49828;SDS011;35723;51.194;5.112;2022-09-21T17:49:54;2.83;;;1.50;;
49828;SDS011;35723;51.194;5.112;2022-09-21T17:52:26;4.40;;;1.80;;
49828;SDS011;35723;51.194;5.112;2022-09-21T17:55:11;2.80;;;1.67;;
49828;SDS011;35723;51.194;5.112;2022-09-21T18:00:17;3.92;;;1.92;;
49828;SDS011;35723;51.194;5.112;2022-09-21T18:02:48;4.97;;;1.70;;
49828;SDS011;35723;51.194;5.112;2022-09-21T18:05:23;4.85;;;1.60;;
49828;SDS011;35723;51.194;5.112;2022-09-21T18:07:51;4.25;;;1.80;;
49828;SDS011;35723;51.194;5.112;2022-09-21T18:10:18;4.38;;;1.80;;
49828;SDS011;35723;51.194;5.112;2022-09-21T18:18:31;4.32;;;2.13;;
49828;SDS011;35723;51.194;5.112;2022-09-21T18:21:19;3.42;;;2.03;;
49828;SDS011;35723;51.194;5.112;2022-09-21T18:26:42;4.70;;;2.35;;
49828;SDS011;35723;51.194;5.112;2022-09-21T18:29:20;3.75;;;2.38;;
49828;SDS011;35723;51.194;5.112;2022-09-21T18:40:35;7.18;;;2.97;;
49828;SDS011;35723;51.194;5.112;2022-09-21T18:46:01;6.40;;;3.03;;
49828;SDS011;35723;51.194;5.112;2022-09-21T18:54:19;7.88;;;3.10;;
49828;SDS011;35723;51.194;5.112;2022-09-21T18:56:47;7.15;;;3.30;;
49828;SDS011;35723;51.194;5.112;2022-09-21T18:59:12;9.07;;;3.65;;
49828;SDS011;35723;51.194;5.112;2022-09-21T19:01:40;6.65;;;3.50;;
49828;SDS011;35723;51.194;5.112;2022-09-21T19:04:07;6.68;;;3.15;;
49828;SDS011;35723;51.194;5.112;2022-09-21T19:06:51;6.50;;;3.38;;
49828;SDS011;35723;51.194;5.112;2022-09-21T19:09:34;8.35;;;3.60;;
49828;SDS011;35723;51.194;5.112;2022-09-21T19:26:46;10.00;;;4.35;;
49828;SDS011;35723;51.194;5.112;2022-09-21T19:34:58;11.57;;;4.30;;
49828;SDS011;35723;51.194;5.112;2022-09-21T19:37:36;10.57;;;4.20;;
49828;SDS011;35723;51.194;5.112;2022-09-21T19:40:02;12.40;;;4.38;;
49828;SDS011;35723;51.194;5.112;2022-09-21T19:42:54;9.70;;;4.45;;
49828;SDS011;35723;51.194;5.112;2022-09-21T19:45:18;9.43;;;4.25;;
49828;SDS011;35723;51.194;5.112;2022-09-21T19:47:52;9.82;;;4.65;;
49828;SDS011;35723;51.194;5.112;2022-09-21T19:50:22;9.93;;;4.60;;
49828;SDS011;35723;51.194;5.112;2022-09-21T19:52:51;10.45;;;4.53;;
49828;SDS011;35723;51.194;5.112;2022-09-21T19:55:37;8.85;;;4.60;;
49828;SDS011;35723;51.194;5.112;2022-09-21T19:58:23;9.90;;;4.45;;
49828;SDS011;35723;51.194;5.112;2022-09-21T20:01:07;9.48;;;4.45;;
49828;SDS011;35723;51.194;5.112;2022-09-21T20:03:37;9.90;;;4.60;;
49828;SDS011;35723;51.194;5.112;2022-09-21T20:09:02;9.85;;;4.70;;